createdAt,value
2017-05-08T00:01:13.055Z,34.76
2017-05-08T00:02:12.837Z,34.78
2017-05-08T00:03:12.777Z,35.24
2017-05-08T00:04:12.715Z,34.95
2017-05-08T00:05:12.652Z,34.78
2017-05-08T00:06:12.590Z,34.66
2017-05-08T00:07:12.528Z,35.14
2017-05-08T00:08:12.471Z,34.76
2017-05-08T00:09:12.407Z,35.24
2017-05-08T00:10:12.345Z,34.78
2017-05-08T00:11:12.531Z,34.78
2017-05-08T00:12:12.219Z,34.95
2017-05-08T00:13:12.159Z,34.66
2017-05-08T00:14:12.099Z,35.24
2017-05-08T00:15:12.135Z,34.76
2017-05-08T00:16:11.672Z,34.66
2017-05-08T00:17:11.918Z,34.66
2017-05-08T00:18:11.849Z,35.06
2017-05-08T00:19:11.788Z,34.66
2017-05-08T00:20:11.728Z,34.76
2017-05-08T00:21:11.672Z,34.56
2017-05-08T00:22:11.602Z,34.58
2017-05-08T00:23:11.543Z,34.58
2017-05-08T00:24:11.480Z,34.95
2017-05-08T00:25:11.419Z,34.76
2017-05-08T00:26:11.358Z,34.56
2017-05-08T00:27:11.297Z,34.39
2017-05-08T00:28:11.235Z,34.47
2017-05-08T00:29:11.173Z,34.66
2017-05-08T00:30:11.111Z,34.86
2017-05-08T00:31:11.047Z,34.38
2017-05-08T00:32:10.987Z,34.47
2017-05-08T00:33:10.623Z,34.56
2017-05-08T00:34:10.562Z,34.47
2017-05-08T00:35:10.800Z,34.47
2017-05-08T00:36:10.440Z,34.47
2017-05-08T00:37:10.677Z,34.76
2017-05-08T00:38:10.619Z,34.48
2017-05-08T00:39:10.560Z,34.87
2017-05-08T00:40:10.494Z,34.38
2017-05-08T00:41:10.131Z,34.76
2017-05-08T00:42:10.369Z,34.76
2017-05-08T00:43:10.307Z,34.47
2017-05-08T00:44:09.952Z,34.38
2017-05-08T00:45:10.183Z,34.56
2017-05-08T00:46:10.123Z,34
2017-05-08T00:47:09.761Z,34.66
2017-05-08T00:48:10.000Z,34.38
2017-05-08T00:49:09.938Z,34.56
2017-05-08T00:50:09.876Z,34.39
2017-05-08T00:51:09.815Z,34.18
2017-05-08T00:52:09.755Z,34.47
2017-05-08T00:53:09.694Z,34.28
2017-05-08T00:54:09.632Z,34.28
2017-05-08T00:55:09.566Z,34
2017-05-08T00:56:09.505Z,34.58
2017-05-08T00:57:09.445Z,34.58
2017-05-08T00:58:09.381Z,34.66
2017-05-08T00:59:09.323Z,34.56
2017-05-08T01:00:08.959Z,34.66
2017-05-08T01:01:09.196Z,34.68
2017-05-08T01:02:09.137Z,34.08
2017-05-08T01:03:09.073Z,34.56
2017-05-08T01:04:09.013Z,34.66
2017-05-08T01:05:09.101Z,34.76
2017-05-08T01:06:08.887Z,34.38
2017-05-08T01:07:08.827Z,34.1
2017-05-08T01:08:08.767Z,34.87
2017-05-08T01:09:08.704Z,34.68
2017-05-08T01:10:08.643Z,34.18
2017-05-08T01:11:08.579Z,34.2
2017-05-08T01:12:08.517Z,34.18
2017-05-08T01:13:08.457Z,34.28
2017-05-08T01:14:08.396Z,34.68
2017-05-08T01:15:08.331Z,34.18
2017-05-08T01:16:07.971Z,34.18
2017-05-08T01:17:08.208Z,34.68
2017-05-08T01:18:07.849Z,34.28
2017-05-08T01:19:08.086Z,34.18
2017-05-08T01:20:08.022Z,34.66
2017-05-08T01:21:07.961Z,34.18
2017-05-08T01:22:07.902Z,34.08
2017-05-08T01:23:07.838Z,34.08
2017-05-08T01:24:07.824Z,34.76
2017-05-08T01:25:07.717Z,33.98
2017-05-08T01:26:07.655Z,34.28
2017-05-08T01:27:07.591Z,34.76
2017-05-08T01:28:07.537Z,34.08
2017-05-08T01:29:07.478Z,34.1
2017-05-08T01:30:07.407Z,33.89
2017-05-08T01:31:07.346Z,34.56
2017-05-08T01:32:07.282Z,34.2
2017-05-08T01:33:07.221Z,34.87
2017-05-08T01:34:07.161Z,33.98
2017-05-08T01:35:07.399Z,34.18
2017-05-08T01:36:07.040Z,34.56
2017-05-08T01:37:06.979Z,34.08
2017-05-08T01:38:06.915Z,34.2
2017-05-08T01:39:06.857Z,34.78
2017-05-08T01:40:06.792Z,34.08
2017-05-08T01:41:06.728Z,33.89
2017-05-08T01:42:06.671Z,34.95
2017-05-08T01:43:06.606Z,34.28
2017-05-08T01:44:06.543Z,34.29
2017-05-08T01:45:06.484Z,34.87
2017-05-08T01:46:06.420Z,34.97
2017-05-08T01:47:06.359Z,34.28
2017-05-08T01:48:06.297Z,34.28
2017-05-08T01:49:06.240Z,34.38
2017-05-08T01:50:06.173Z,34.39
2017-05-08T01:51:06.112Z,34.28
2017-05-08T01:52:06.049Z,34.48
2017-05-08T01:53:05.987Z,34.28
2017-05-08T01:54:05.931Z,34.48
2017-05-08T01:55:05.864Z,35.05
2017-05-08T01:56:05.802Z,34.66
2017-05-08T01:57:05.741Z,34.48
2017-05-08T01:58:05.679Z,34.39
2017-05-08T01:59:05.617Z,34.86
2017-05-08T02:00:05.261Z,34.39
2017-05-08T02:01:05.494Z,34.38
2017-05-08T02:02:05.433Z,34.66
2017-05-08T02:03:05.371Z,34
2017-05-08T02:04:05.317Z,34.68
2017-05-08T02:05:05.247Z,34.66
2017-05-08T02:06:05.185Z,34.56
2017-05-08T02:07:05.124Z,33.98
2017-05-08T02:08:05.064Z,34.47
2017-05-08T02:09:05.000Z,33.81
2017-05-08T02:10:04.941Z,34
2017-05-08T02:11:04.877Z,34.39
2017-05-08T02:12:04.815Z,34.56
2017-05-08T02:13:04.753Z,34.58
2017-05-08T02:14:04.691Z,34.56
2017-05-08T02:15:04.629Z,33.8
2017-05-08T02:16:04.567Z,34.18
2017-05-08T02:17:04.508Z,33.8
2017-05-08T02:18:04.456Z,34.56
2017-05-08T02:19:04.409Z,33.8
2017-05-08T02:20:04.321Z,34.38
2017-05-08T02:21:04.259Z,34.18
2017-05-08T02:22:04.199Z,34.28
2017-05-08T02:23:04.136Z,33.8
2017-05-08T02:24:04.075Z,34.2
2017-05-08T02:25:04.037Z,34.08
2017-05-08T02:26:03.953Z,33.6
2017-05-08T02:27:03.890Z,34.08
2017-05-08T02:28:03.827Z,33.8
2017-05-08T02:29:03.766Z,34.18
2017-05-08T02:30:03.704Z,33.89
2017-05-08T02:31:03.641Z,33.8
2017-05-08T02:32:03.582Z,34.28
2017-05-08T02:33:03.521Z,33.8
2017-05-08T02:34:03.457Z,33.98
2017-05-08T02:35:03.395Z,34
2017-05-08T02:36:03.333Z,33.98
2017-05-08T02:37:03.271Z,34.08
2017-05-08T02:38:03.208Z,34.08
2017-05-08T02:39:03.148Z,33.31
2017-05-08T02:40:03.085Z,34
2017-05-08T02:41:03.025Z,34.18
2017-05-08T02:42:02.962Z,33.31
2017-05-08T02:43:02.904Z,33.7
2017-05-08T02:44:02.837Z,33.91
2017-05-08T02:45:02.781Z,34.1
2017-05-08T02:46:02.416Z,33.7
2017-05-08T02:47:02.653Z,33.89
2017-05-08T02:48:02.591Z,33.8
2017-05-08T02:49:02.530Z,33.91
2017-05-08T02:50:02.468Z,33.8
2017-05-08T02:51:02.407Z,33.98
2017-05-08T02:52:02.343Z,33.8
2017-05-08T02:53:02.283Z,33.89
2017-05-08T02:54:02.222Z,33.89
2017-05-08T02:55:02.161Z,33.7
2017-05-08T02:56:02.102Z,33.62
2017-05-08T02:57:02.035Z,33.42
2017-05-08T02:58:01.973Z,33.42
2017-05-08T02:59:01.913Z,33.98
2017-05-08T03:00:01.851Z,33.89
2017-05-08T03:01:01.492Z,33.8
2017-05-08T03:02:01.728Z,33.98
2017-05-08T03:03:01.368Z,33.98
2017-05-08T03:04:01.606Z,33.8
2017-05-08T03:05:01.542Z,33.8
2017-05-08T03:06:01.479Z,33.22
2017-05-08T03:07:01.419Z,33.31
2017-05-08T03:08:01.368Z,33.98
2017-05-08T03:09:01.297Z,33.6
2017-05-08T03:10:01.235Z,33.4
2017-05-08T03:11:01.173Z,33.89
2017-05-08T03:12:01.112Z,33.7
2017-05-08T03:13:01.048Z,33.31
2017-05-08T03:14:00.987Z,33.02
2017-05-08T03:15:00.926Z,32.82
2017-05-08T03:16:00.863Z,32.75
2017-05-08T03:17:00.801Z,32.44
2017-05-08T03:18:00.774Z,32.34
2017-05-08T03:19:00.678Z,32.06
2017-05-08T03:20:00.619Z,31.76
2017-05-08T03:21:00.554Z,31.38
2017-05-08T03:22:00.494Z,31.48
2017-05-08T03:23:00.431Z,31.18
2017-05-08T03:24:00.370Z,31.38
2017-05-08T03:25:00.306Z,31.18
2017-05-08T03:26:00.249Z,31.18
2017-05-08T03:27:00.183Z,30.7
2017-05-08T03:28:00.123Z,30.99
2017-05-08T03:29:00.061Z,30.99
2017-05-08T03:29:59.997Z,30.7
2017-05-08T03:30:59.935Z,30.61
2017-05-08T03:31:59.875Z,30.41
2017-05-08T03:32:59.813Z,30.03
2017-05-08T03:33:59.752Z,30.22
2017-05-08T03:34:59.699Z,30.22
2017-05-08T03:35:59.635Z,30.03
2017-05-08T03:36:59.566Z,30.03
2017-05-08T03:37:59.506Z,30.32
2017-05-08T03:38:59.440Z,30.03
2017-05-08T03:39:59.381Z,30.03
2017-05-08T03:40:59.319Z,29.93
2017-05-08T03:41:59.261Z,29.64
2017-05-08T03:42:59.195Z,29.83
2017-05-08T03:43:59.133Z,29.64
2017-05-08T03:44:59.070Z,29.64
2017-05-08T03:45:59.008Z,29.74
2017-05-08T03:46:58.945Z,29.83
2017-05-08T03:47:58.887Z,29.83
2017-05-08T03:48:58.825Z,29.16
2017-05-08T03:49:58.760Z,29.35
2017-05-08T03:50:58.708Z,29.35
2017-05-08T03:51:58.637Z,29.25
2017-05-08T03:52:58.577Z,29.16
2017-05-08T03:53:58.514Z,28.97
2017-05-08T03:54:58.452Z,29.16
2017-05-08T03:55:58.393Z,28.77
2017-05-08T03:56:58.327Z,28.97
2017-05-08T03:57:58.271Z,28.87
2017-05-08T03:58:58.204Z,28.67
2017-05-08T03:59:58.145Z,28.77
2017-05-08T04:00:58.080Z,28.77
2017-05-08T04:01:58.021Z,28.97
2017-05-08T04:02:57.659Z,28.77
2017-05-08T04:03:57.897Z,28.77
2017-05-08T04:04:57.833Z,28.58
2017-05-08T04:05:57.775Z,28.58
2017-05-08T04:06:57.708Z,28.58
2017-05-08T04:07:57.655Z,28.39
2017-05-08T04:08:57.585Z,28.39
2017-05-08T04:09:57.523Z,28.29
2017-05-08T04:10:57.463Z,28.48
2017-05-08T04:11:57.399Z,28.29
2017-05-08T04:12:57.341Z,28.39
2017-05-08T04:13:57.275Z,28.39
2017-05-08T04:14:57.217Z,28.58
2017-05-08T04:15:57.150Z,28.58
2017-05-08T04:16:57.093Z,28.67
2017-05-08T04:17:57.026Z,28.09
2017-05-08T04:18:56.964Z,28.29
2017-05-08T04:19:56.907Z,28.39
2017-05-08T04:20:56.841Z,28.29
2017-05-08T04:21:56.781Z,28.19
2017-05-08T04:22:56.727Z,27.91
2017-05-08T04:23:56.656Z,28.29
2017-05-08T04:24:56.596Z,27.71
2017-05-08T04:25:56.232Z,27.61
2017-05-08T04:26:56.170Z,27.81
2017-05-08T04:27:56.410Z,28
2017-05-08T04:28:56.349Z,27.42
2017-05-08T04:29:56.286Z,27.71
2017-05-08T04:30:56.221Z,27.71
2017-05-08T04:31:56.159Z,27.23
2017-05-08T04:32:56.102Z,27.42
2017-05-08T04:33:56.043Z,27.33
2017-05-08T04:34:55.976Z,27.51
2017-05-08T04:35:55.911Z,27.61
2017-05-08T04:36:55.852Z,27.51
2017-05-08T04:37:55.790Z,27.71
2017-05-08T04:38:55.759Z,27.42
2017-05-08T04:39:55.664Z,27.13
2017-05-08T04:40:55.753Z,27.13
2017-05-08T04:41:55.543Z,27.13
2017-05-08T04:42:55.178Z,27.33
2017-05-08T04:43:55.420Z,27.23
2017-05-08T04:44:55.355Z,27.13
2017-05-08T04:45:55.291Z,26.93
2017-05-08T04:46:55.230Z,27.13
2017-05-08T04:47:55.171Z,26.93
2017-05-08T04:48:55.107Z,27.03
2017-05-08T04:49:54.746Z,26.84
2017-05-08T04:50:54.982Z,26.75
2017-05-08T04:51:54.923Z,26.75
2017-05-08T04:52:54.867Z,26.84
2017-05-08T04:53:54.797Z,26.84
2017-05-08T04:54:54.736Z,26.75
2017-05-08T04:55:54.822Z,26.65
2017-05-08T04:56:54.611Z,26.55
2017-05-08T04:57:54.548Z,26.55
2017-05-08T04:58:54.488Z,26.45
2017-05-08T04:59:54.424Z,26.35
2017-05-08T05:00:54.363Z,26.65
2017-05-08T05:01:54.302Z,26.55
2017-05-08T05:02:54.239Z,26.65
2017-05-08T05:03:54.181Z,26.35
2017-05-08T05:04:54.114Z,26.45
2017-05-08T05:05:54.054Z,26.55
2017-05-08T05:06:53.989Z,26.55
2017-05-08T05:07:53.926Z,26.55
2017-05-08T05:08:53.867Z,26.45
2017-05-08T05:09:53.806Z,26.45
2017-05-08T05:10:53.743Z,26.55
2017-05-08T05:11:53.679Z,26.45
2017-05-08T05:12:53.618Z,26.26
2017-05-08T05:13:53.563Z,26.55
2017-05-08T05:14:53.496Z,26.55
2017-05-08T05:15:53.132Z,26.45
2017-05-08T05:16:53.370Z,26.65
2017-05-08T05:17:53.311Z,26.45
2017-05-08T05:18:53.244Z,26.35
2017-05-08T05:19:53.186Z,26.45
2017-05-08T05:20:53.121Z,26.55
2017-05-08T05:21:53.057Z,26.45
2017-05-08T05:22:52.996Z,26.55
2017-05-08T05:23:52.935Z,26.55
2017-05-08T05:24:52.878Z,26.75
2017-05-08T05:25:52.810Z,26.65
2017-05-08T05:26:52.750Z,26.65
2017-05-08T05:27:52.688Z,26.55
2017-05-08T05:28:52.623Z,26.65
2017-05-08T05:29:52.562Z,26.55
2017-05-08T05:30:52.501Z,26.55
2017-05-08T05:31:52.446Z,26.55
2017-05-08T05:32:52.077Z,26.84
2017-05-08T05:33:52.024Z,26.84
2017-05-08T05:34:51.953Z,26.65
2017-05-08T05:35:52.190Z,27.03
2017-05-08T05:36:51.829Z,27.13
2017-05-08T05:37:52.066Z,27.03
2017-05-08T05:38:51.705Z,26.93
2017-05-08T05:39:51.641Z,26.93
2017-05-08T05:40:51.580Z,26.75
2017-05-08T05:41:51.816Z,27.23
2017-05-08T05:42:51.761Z,27.33
2017-05-08T05:43:51.692Z,27.33
2017-05-08T05:44:51.630Z,27.03
2017-05-08T05:45:51.569Z,27.23
2017-05-08T05:46:51.508Z,26.65
2017-05-08T05:47:51.455Z,27.13
2017-05-08T05:48:51.405Z,27.13
2017-05-08T05:49:51.323Z,27.23
2017-05-08T05:50:51.258Z,27.13
2017-05-08T05:51:51.199Z,27.03
2017-05-08T05:52:51.135Z,27.33
2017-05-08T05:53:51.072Z,27.23
2017-05-08T05:54:51.010Z,27.42
2017-05-08T05:55:50.951Z,27.03
2017-05-08T05:56:50.922Z,27.51
2017-05-08T05:57:50.824Z,27.42
2017-05-08T05:58:50.763Z,27.61
2017-05-08T05:59:50.700Z,27.61
2017-05-08T06:00:50.739Z,27.4
2017-05-08T06:01:50.574Z,27.42
2017-05-08T06:02:50.514Z,27.33
2017-05-08T06:03:50.451Z,27.42
2017-05-08T06:04:50.389Z,27.13
2017-05-08T06:05:50.026Z,27.23
2017-05-08T06:06:50.265Z,27.33
2017-05-08T06:07:50.204Z,27.71
2017-05-08T06:08:50.141Z,27.13
2017-05-08T06:09:50.077Z,27.23
2017-05-08T06:10:50.016Z,27.13
2017-05-08T06:11:49.954Z,27.13
2017-05-08T06:12:49.891Z,27.33
2017-05-08T06:13:49.831Z,27.81
2017-05-08T06:14:49.767Z,27.81
2017-05-08T06:15:49.706Z,27.81
2017-05-08T06:16:49.643Z,27.51
2017-05-08T06:17:49.580Z,27.51
2017-05-08T06:18:49.522Z,27.61
2017-05-08T06:19:49.456Z,27.51
2017-05-08T06:20:49.395Z,27.61
2017-05-08T06:21:49.334Z,27.61
2017-05-08T06:22:49.276Z,27.81
2017-05-08T06:23:49.209Z,27.4
2017-05-08T06:24:49.146Z,27.61
2017-05-08T06:25:48.792Z,27.51
2017-05-08T06:26:49.022Z,27.7
2017-05-08T06:27:48.964Z,27.71
2017-05-08T06:28:48.901Z,27.4
2017-05-08T06:29:48.838Z,27.42
2017-05-08T06:30:48.777Z,27.7
2017-05-08T06:31:48.711Z,27.71
2017-05-08T06:32:48.651Z,27.51
2017-05-08T06:33:48.589Z,27.6
2017-05-08T06:34:48.526Z,27.6
2017-05-08T06:35:48.462Z,27.91
2017-05-08T06:36:48.405Z,27.71
2017-05-08T06:37:48.344Z,27.23
2017-05-08T06:38:48.275Z,27.13
2017-05-08T06:39:48.214Z,27.42
2017-05-08T06:40:48.152Z,27.6
2017-05-08T06:41:48.089Z,27.71
2017-05-08T06:42:47.729Z,27.91
2017-05-08T06:43:47.666Z,27.89
2017-05-08T06:44:47.901Z,28
2017-05-08T06:45:47.842Z,27.71
2017-05-08T06:46:47.778Z,27.71
2017-05-08T06:47:47.817Z,27.6
2017-05-08T06:48:47.664Z,27.91
2017-05-08T06:49:47.598Z,27.71
2017-05-08T06:50:47.535Z,27.6
2017-05-08T06:51:47.469Z,28
2017-05-08T06:52:47.405Z,27.51
2017-05-08T06:53:47.343Z,27.91
2017-05-08T06:54:47.281Z,27.91
2017-05-08T06:55:47.220Z,27.81
2017-05-08T06:56:47.157Z,27.51
2017-05-08T06:57:47.094Z,27.61
2017-05-08T06:58:47.032Z,27.71
2017-05-08T06:59:46.973Z,27.89
2017-05-08T07:00:46.908Z,27.98
2017-05-08T07:01:46.844Z,28.28
2017-05-08T07:02:46.790Z,28.19
2017-05-08T07:03:46.725Z,28.18
2017-05-08T07:04:46.660Z,28.28
2017-05-08T07:05:46.696Z,28.28
2017-05-08T07:06:46.536Z,28.28
2017-05-08T07:07:46.621Z,28.39
2017-05-08T07:08:46.412Z,28.18
2017-05-08T07:09:46.049Z,28.58
2017-05-08T07:10:46.290Z,28.58
2017-05-08T07:11:46.228Z,28.67
2017-05-08T07:12:46.160Z,28.67
2017-05-08T07:13:45.801Z,28.47
2017-05-08T07:14:45.737Z,28.29
2017-05-08T07:15:45.679Z,28.37
2017-05-08T07:16:45.613Z,28.56
2017-05-08T07:17:45.850Z,28.48
2017-05-08T07:18:45.791Z,28.56
2017-05-08T07:19:45.733Z,28.66
2017-05-08T07:20:45.666Z,28.56
2017-05-08T07:21:45.600Z,28.76
2017-05-08T07:22:45.544Z,28.77
2017-05-08T07:23:45.474Z,28.76
2017-05-08T07:24:45.414Z,29.14
2017-05-08T07:25:45.352Z,29.05
2017-05-08T07:26:45.289Z,29.25
2017-05-08T07:27:45.231Z,29.24
2017-05-08T07:28:44.868Z,29.82
2017-05-08T07:29:45.102Z,29.72
2017-05-08T07:30:45.042Z,29.64
2017-05-08T07:31:44.980Z,29.74
2017-05-08T07:32:44.918Z,29.83
2017-05-08T07:33:44.557Z,29.64
2017-05-08T07:34:44.794Z,29.64
2017-05-08T07:35:44.731Z,29.83
2017-05-08T07:36:44.666Z,29.83
2017-05-08T07:37:44.640Z,30.22
2017-05-08T07:38:44.794Z,30.12
2017-05-08T07:39:44.481Z,29.83
2017-05-08T07:40:44.121Z,29.83
2017-05-08T07:41:44.358Z,30.03
2017-05-08T07:42:43.998Z,30.12
2017-05-08T07:43:44.337Z,30.12
2017-05-08T07:44:44.177Z,30.12
2017-05-08T07:45:44.107Z,30.22
2017-05-08T07:46:44.046Z,30.12
2017-05-08T07:47:43.982Z,30.12
2017-05-08T07:48:43.922Z,30.03
2017-05-08T07:49:43.859Z,30.22
2017-05-08T07:50:43.498Z,30.61
2017-05-08T07:51:43.737Z,30.41
2017-05-08T07:52:43.672Z,30.41
2017-05-08T07:53:43.319Z,30.32
2017-05-08T07:54:43.250Z,30.7
2017-05-08T07:55:43.189Z,30.61
2017-05-08T07:56:43.131Z,30.7
2017-05-08T07:57:43.367Z,31.38
2017-05-08T07:58:43.302Z,31.18
2017-05-08T07:59:43.240Z,31.09
2017-05-08T08:00:43.327Z,31.38
2017-05-08T08:01:43.115Z,31.57
2017-05-08T08:02:43.056Z,31.57
2017-05-08T08:03:42.693Z,31.48
2017-05-08T08:04:42.929Z,31.48
2017-05-08T08:05:42.567Z,31.76
2017-05-08T08:06:43.061Z,31.76
2017-05-08T08:07:42.744Z,31.86
2017-05-08T08:08:42.381Z,31.67
2017-05-08T08:09:42.619Z,32.24
2017-05-08T08:10:42.658Z,32.75
2017-05-08T08:11:42.497Z,32.44
2017-05-08T08:12:42.431Z,32.54
2017-05-08T08:13:42.370Z,32.44
2017-05-08T08:14:42.309Z,32.82
2017-05-08T08:15:42.098Z,32.94
2017-05-08T08:16:41.885Z,32.73
2017-05-08T08:17:42.124Z,32.92
2017-05-08T08:18:42.062Z,33.42
2017-05-08T08:19:42.000Z,33.42
2017-05-08T08:20:41.937Z,33.42
2017-05-08T08:21:41.876Z,33.7
2017-05-08T08:22:41.812Z,33.23
2017-05-08T08:23:41.757Z,33.52
2017-05-08T08:24:41.690Z,33.04
2017-05-08T08:25:41.883Z,33.72
2017-05-08T08:26:41.571Z,34.2
2017-05-08T08:27:41.506Z,33.52
2017-05-08T08:28:41.445Z,34.1
2017-05-08T08:29:41.381Z,33.81
2017-05-08T08:30:41.321Z,34.48
2017-05-08T08:31:41.379Z,34.2
2017-05-08T08:32:41.199Z,34.48
2017-05-08T08:33:41.137Z,34.58
2017-05-08T08:34:41.071Z,33.81
2017-05-08T08:35:41.007Z,34.2
2017-05-08T08:36:40.946Z,34.1
2017-05-08T08:37:40.884Z,34.1
2017-05-08T08:38:40.833Z,34.68
2017-05-08T08:39:40.762Z,34.78
2017-05-08T08:40:40.701Z,34.87
2017-05-08T08:41:40.639Z,34.58
2017-05-08T08:42:40.576Z,34.97
2017-05-08T08:43:40.519Z,35.74
2017-05-08T08:44:40.453Z,35.55
2017-05-08T08:45:40.497Z,34.39
2017-05-08T08:46:40.330Z,34.87
2017-05-08T08:47:40.269Z,34.78
2017-05-08T08:48:39.907Z,35.64
2017-05-08T08:49:40.185Z,36.03
2017-05-08T08:50:40.485Z,35.45
2017-05-08T08:51:39.721Z,35.55
2017-05-08T08:52:39.661Z,34.97
2017-05-08T08:53:39.598Z,34.97
2017-05-08T08:54:39.848Z,34.68
2017-05-08T08:55:39.775Z,34.39
2017-05-08T08:56:39.713Z,34.78
2017-05-08T08:57:39.651Z,34.39
2017-05-08T08:58:39.591Z,34.58
2017-05-08T08:59:39.537Z,34.78
2017-05-08T09:00:39.467Z,34.78
2017-05-08T09:01:39.406Z,34.78
2017-05-08T09:02:39.346Z,34.87
2017-05-08T09:03:39.283Z,35.55
2017-05-08T09:04:39.220Z,35.64
2017-05-08T09:05:38.862Z,35.74
2017-05-08T09:06:38.798Z,35.84
2017-05-08T09:07:39.040Z,36.22
2017-05-08T09:08:38.675Z,36.61
2017-05-08T09:09:38.912Z,37
2017-05-08T09:10:38.851Z,37.1
2017-05-08T09:11:38.789Z,36.32
2017-05-08T09:12:38.729Z,37.29
2017-05-08T09:13:38.668Z,36.9
2017-05-08T09:14:38.603Z,37.88
2017-05-08T09:15:38.543Z,37.5
2017-05-08T09:16:38.482Z,37.77
2017-05-08T09:17:38.420Z,37.7
2017-05-08T09:18:38.359Z,36.71
2017-05-08T09:19:38.296Z,36.9
2017-05-08T09:20:38.236Z,37.12
2017-05-08T09:21:38.174Z,36.61
2017-05-08T09:22:38.113Z,35.94
2017-05-08T09:23:38.051Z,35.64
2017-05-08T09:24:37.988Z,35.94
2017-05-08T09:25:37.937Z,35.55
2017-05-08T09:26:37.867Z,35.45
2017-05-08T09:27:37.806Z,35.06
2017-05-08T09:28:37.449Z,35.36
2017-05-08T09:29:37.381Z,35.64
2017-05-08T09:30:37.719Z,35.55
2017-05-08T09:31:37.558Z,35.55
2017-05-08T09:32:37.495Z,34.97
2017-05-08T09:33:37.439Z,34.97
2017-05-08T09:34:37.382Z,34.78
2017-05-08T09:35:37.312Z,34.97
2017-05-08T09:36:37.255Z,34.68
2017-05-08T09:37:37.188Z,34.29
2017-05-08T09:38:37.127Z,34
2017-05-08T09:39:37.068Z,33.91
2017-05-08T09:40:37.004Z,34
2017-05-08T09:41:36.940Z,33.62
2017-05-08T09:42:36.885Z,33.81
2017-05-08T09:43:36.823Z,33.91
2017-05-08T09:44:36.757Z,33.52
2017-05-08T09:45:36.692Z,33.62
2017-05-08T09:46:36.632Z,33.52
2017-05-08T09:47:36.586Z,33.72
2017-05-08T09:48:36.506Z,33.91
2017-05-08T09:49:36.447Z,33.72
2017-05-08T09:50:36.387Z,33.33
2017-05-08T09:51:36.326Z,33.52
2017-05-08T09:52:36.259Z,33.81
2017-05-08T09:53:36.207Z,33.42
2017-05-08T09:54:36.138Z,33.89
2017-05-08T09:55:36.075Z,33.6
2017-05-08T09:56:35.718Z,33.4
2017-05-08T09:57:35.953Z,33.5
2017-05-08T09:58:35.889Z,33.52
2017-05-08T09:59:35.826Z,33.31
2017-05-08T10:00:35.766Z,33.98
2017-05-08T10:01:35.702Z,33.62
2017-05-08T10:02:35.644Z,33.98
2017-05-08T10:03:35.279Z,33.7
2017-05-08T10:04:35.519Z,33.22
2017-05-08T10:05:35.455Z,33.4
2017-05-08T10:06:35.093Z,33.8
2017-05-08T10:07:35.030Z,33.5
2017-05-08T10:08:34.982Z,32.64
2017-05-08T10:09:35.209Z,33.31
2017-05-08T10:10:35.146Z,33.31
2017-05-08T10:11:34.783Z,33.31
2017-05-08T10:12:35.021Z,33.6
2017-05-08T10:13:34.973Z,33.12
2017-05-08T10:14:34.897Z,33.5
2017-05-08T10:15:34.839Z,33.89
2017-05-08T10:16:34.777Z,33.31
2017-05-08T10:17:34.715Z,33.89
2017-05-08T10:18:34.647Z,33.81
2017-05-08T10:19:34.590Z,33.8
2017-05-08T10:20:34.524Z,33.89
2017-05-08T10:21:34.461Z,33.89
2017-05-08T10:22:34.399Z,33.7
2017-05-08T10:23:34.377Z,33.8
2017-05-08T10:24:34.279Z,33.12
2017-05-08T10:25:33.915Z,34.08
2017-05-08T10:26:34.151Z,33.12
2017-05-08T10:27:34.090Z,33.6
2017-05-08T10:28:34.027Z,33.98
2017-05-08T10:29:33.966Z,33.4
2017-05-08T10:30:33.904Z,33.22
2017-05-08T10:31:33.842Z,33.7
2017-05-08T10:32:33.781Z,33.89
2017-05-08T10:33:33.716Z,33.6
2017-05-08T10:34:33.655Z,33.89
2017-05-08T10:35:33.592Z,33.31
2017-05-08T10:36:33.530Z,33.6
2017-05-08T10:37:33.468Z,33.4
2017-05-08T10:38:33.407Z,33.5
2017-05-08T10:39:33.343Z,33.6
2017-05-08T10:40:32.983Z,33.22
2017-05-08T10:41:33.226Z,33.98
2017-05-08T10:42:33.158Z,33.6
2017-05-08T10:43:32.796Z,33.8
2017-05-08T10:44:33.035Z,33.4
2017-05-08T10:45:32.973Z,33.7
2017-05-08T10:46:32.909Z,33.7
2017-05-08T10:47:32.852Z,33.7
2017-05-08T10:48:32.785Z,33.91
2017-05-08T10:49:32.725Z,33.98
2017-05-08T10:50:32.660Z,33.6
2017-05-08T10:51:32.599Z,33.02
2017-05-08T10:52:32.537Z,33.31
2017-05-08T10:53:32.475Z,33.8
2017-05-08T10:54:32.412Z,34.08
2017-05-08T10:55:32.350Z,33.81
2017-05-08T10:56:32.289Z,33.12
2017-05-08T10:57:32.226Z,33.89
2017-05-08T10:58:32.165Z,33.89
2017-05-08T10:59:32.102Z,33.14
2017-05-08T11:00:32.261Z,33.6
2017-05-08T11:01:31.980Z,33.7
2017-05-08T11:02:31.916Z,33.89
2017-05-08T11:03:31.855Z,33.4
2017-05-08T11:04:31.794Z,33.7
2017-05-08T11:05:31.732Z,33.4
2017-05-08T11:06:31.674Z,33.6
2017-05-08T11:07:31.608Z,33.7
2017-05-08T11:08:31.544Z,33.7
2017-05-08T11:09:31.483Z,33.98
2017-05-08T11:10:31.425Z,33.4
2017-05-08T11:11:31.360Z,33.89
2017-05-08T11:12:31.302Z,33.89
2017-05-08T11:13:31.236Z,33.89
2017-05-08T11:14:31.175Z,33.81
2017-05-08T11:15:31.111Z,33.4
2017-05-08T11:16:31.048Z,33.12
2017-05-08T11:17:30.989Z,33.31
2017-05-08T11:18:30.624Z,33.4
2017-05-08T11:19:30.566Z,33.6
2017-05-08T11:20:30.801Z,33.52
2017-05-08T11:21:30.741Z,33.4
2017-05-08T11:22:30.684Z,33.91
2017-05-08T11:23:30.614Z,33.72
2017-05-08T11:24:30.556Z,33.14
2017-05-08T11:25:30.491Z,33.22
2017-05-08T11:26:30.434Z,33.5
2017-05-08T11:27:30.376Z,33.5
2017-05-08T11:28:30.306Z,33.22
2017-05-08T11:29:29.947Z,33.5
2017-05-08T11:30:30.282Z,33.72
2017-05-08T11:31:29.821Z,33.62
2017-05-08T11:32:30.058Z,33.5
2017-05-08T11:33:29.997Z,33.4
2017-05-08T11:34:29.937Z,33.7
2017-05-08T11:35:29.975Z,33.6
2017-05-08T11:36:29.516Z,33.7
2017-05-08T11:37:29.750Z,33.8
2017-05-08T11:38:29.687Z,33.02
2017-05-08T11:39:29.624Z,33.62
2017-05-08T11:40:29.573Z,33.02
2017-05-08T11:41:29.499Z,33.5
2017-05-08T11:42:29.444Z,33.98
2017-05-08T11:43:29.379Z,33.89
2017-05-08T11:44:29.318Z,33.4
2017-05-08T11:45:29.252Z,33.5
2017-05-08T11:46:29.196Z,33.89
2017-05-08T11:47:29.131Z,33.81
2017-05-08T11:48:29.067Z,34.08
2017-05-08T11:49:29.005Z,33.31
2017-05-08T11:50:28.942Z,33.8
2017-05-08T11:51:28.883Z,33.98
2017-05-08T11:52:28.821Z,33.5
2017-05-08T11:53:28.762Z,33.31
2017-05-08T11:54:28.697Z,33.6
2017-05-08T11:55:28.634Z,33.4
2017-05-08T11:56:28.585Z,33.5
2017-05-08T11:57:28.209Z,32.75
2017-05-08T11:58:28.452Z,33.8
2017-05-08T11:59:28.385Z,33.31
2017-05-08T12:00:28.324Z,33.5
2017-05-08T12:01:28.263Z,33.12
2017-05-08T12:02:28.215Z,33.4
2017-05-08T12:03:28.138Z,33.89
2017-05-08T12:04:28.075Z,33.81
2017-05-08T12:05:28.015Z,33.8
2017-05-08T12:06:27.953Z,32.92
2017-05-08T12:07:27.889Z,33.22
2017-05-08T12:08:27.826Z,33.5
2017-05-08T12:09:27.772Z,33.48
2017-05-08T12:10:27.700Z,33.39
2017-05-08T12:11:27.638Z,33.97
2017-05-08T12:12:27.575Z,34.92
2017-05-08T12:13:27.514Z,34.34
2017-05-08T12:14:27.452Z,33.87
2017-05-08T12:15:27.388Z,33.2
2017-05-08T12:16:27.328Z,33.48
2017-05-08T12:17:27.262Z,33.78
2017-05-08T12:18:27.199Z,33.97
2017-05-08T12:19:27.138Z,33.22
2017-05-08T12:20:27.074Z,33.6
2017-05-08T12:21:27.017Z,33.89
2017-05-08T12:22:26.949Z,33.4
2017-05-08T12:23:26.886Z,33.6
2017-05-08T12:24:26.827Z,33.31
2017-05-08T12:25:26.760Z,33.31
2017-05-08T12:26:26.400Z,33.22
2017-05-08T12:27:26.343Z,33.4
2017-05-08T12:28:26.588Z,33.4
2017-05-08T12:29:26.213Z,33.22
2017-05-08T12:30:26.149Z,33.4
2017-05-08T12:31:26.389Z,33.6
2017-05-08T12:32:26.337Z,33.31
2017-05-08T12:33:26.262Z,33.6
2017-05-08T12:34:26.202Z,33.5
2017-05-08T12:35:26.138Z,33.87
2017-05-08T12:36:25.788Z,34.55
2017-05-08T12:37:26.014Z,34.64
2017-05-08T12:38:25.951Z,33.78
2017-05-08T12:39:25.892Z,34.36
2017-05-08T12:40:25.828Z,34.18
2017-05-08T12:41:25.766Z,33.97
2017-05-08T12:42:25.704Z,34.26
2017-05-08T12:43:25.649Z,33.87
2017-05-08T12:44:25.607Z,34.74
2017-05-08T12:45:25.519Z,34.08
2017-05-08T12:46:25.470Z,34.66
2017-05-08T12:47:25.395Z,34.38
2017-05-08T12:48:25.330Z,34.47
2017-05-08T12:49:25.272Z,34.66
2017-05-08T12:50:25.314Z,34.56
2017-05-08T12:51:25.143Z,34.38
2017-05-08T12:52:25.081Z,34.76
2017-05-08T12:53:24.729Z,34.47
2017-05-08T12:54:24.954Z,34.76
2017-05-08T12:55:25.147Z,35.14
2017-05-08T12:56:24.859Z,35.14
2017-05-08T12:57:24.772Z,35.14